Time;durP1;ratioP1;P1;durP2;ratioP2;P2;SDS_P1;SDS_P2;PMS_P1;PMS_P2;Temp;Humidity;BMP_temperature;BMP_pressure;BME280_temperature;BME280_humidity;BME280_pressure;Samples;Min_cycle;Max_cycle;Signal;HPM_P1;HPM_P2
2022/04/22 00:00:05;;;;;;;12.45;7.57;;;11.70;99.90;;;;;;5050194;28;20045;-68
2022/04/22 00:02:31;;;;;;;10.40;6.82;;;11.80;99.90;;;;;;5049925;28;20507;-68
2022/04/22 00:04:56;;;;;;;12.98;7.43;;;11.60;99.90;;;;;;5053088;28;20079;-68
2022/04/22 00:07:22;;;;;;;12.75;7.00;;;11.60;99.90;;;;;;5054470;28;20045;-67
2022/04/22 00:09:47;;;;;;;12.43;6.85;;;11.50;99.90;;;;;;5053803;28;20079;-68
2022/04/22 00:12:13;;;;;;;11.45;6.32;;;11.30;99.90;;;;;;5053113;28;20041;-68
2022/04/22 00:14:38;;;;;;;12.80;7.35;;;11.40;99.90;;;;;;5053038;28;20045;-68
2022/04/22 00:17:04;;;;;;;15.07;7.88;;;;;;;;;;5052878;28;20037;-68
2022/04/22 00:19:30;;;;;;;16.38;7.15;;;;;;;;;;5052073;28;20045;-68
2022/04/22 00:21:56;;;;;;;9.13;6.65;;;;;;;;;;5054284;28;20048;-68
2022/04/22 00:24:22;;;;;;;18.75;8.98;;;11.60;99.90;;;;;;5054369;28;20037;-69
2022/04/22 00:26:47;;;;;;;24.50;9.98;;;11.40;99.90;;;;;;5053203;28;20208;-68
2022/04/22 00:29:13;;;;;;;18.67;8.82;;;;;;;;;;5052268;28;20181;-68
2022/04/22 00:31:39;;;;;;;19.80;10.60;;;11.20;99.90;;;;;;5052805;28;20041;-68
2022/04/22 00:34:05;;;;;;;19.80;9.07;;;;;;;;;;5053923;28;20122;-68
2022/04/22 00:36:31;;;;;;;16.90;9.27;;;;;;;;;;5052919;28;20040;-69
2022/04/22 00:38:57;;;;;;;16.30;9.25;;;;;;;;;;5052117;28;20076;-68
2022/04/22 00:41:23;;;;;;;19.75;9.25;;;;;;;;;;5035648;28;20103;-68
2022/04/22 00:43:50;;;;;;;13.02;8.20;;;11.20;99.90;;;;;;5035981;28;20646;-68
2022/04/22 00:46:16;;;;;;;16.00;8.10;;;;;;;;;;5053613;28;20380;-68
2022/04/22 00:48:42;;;;;;;18.50;8.50;;;;;;;;;;5035870;28;20621;-68
2022/04/22 00:51:09;;;;;;;12.10;8.40;;;11.20;99.90;;;;;;5051298;28;20081;-68
2022/04/22 00:53:36;;;;;;;15.25;7.78;;;;;;;;;;5052326;28;20041;-68
2022/04/22 00:56:04;;;;;;;19.50;9.77;;;11.10;99.90;;;;;;5052470;28;20063;-68
2022/04/22 00:58:30;;;;;;;20.67;10.23;;;11.10;99.90;;;;;;5053718;28;20658;-68
2022/04/22 01:00:55;;;;;;;15.20;10.20;;;11.00;99.90;;;;;;5052678;28;20085;-68
2022/04/22 01:03:22;;;;;;;14.80;8.65;;;11.10;99.90;;;;;;5035516;28;20254;-68
2022/04/22 01:09:47;;;;;;;20.38;9.10;;;11.10;99.90;;;;;;5053863;28;20116;-68
2022/04/22 01:11:31;;;;;;;14.40;7.85;;;11.00;99.90;;;;;;5053074;28;20342;-68
2022/04/22 01:13:58;;;;;;;13.20;7.95;;;11.00;99.90;;;;;;5051694;28;20048;-68
2022/04/22 01:16:25;;;;;;;14.85;8.50;;;10.90;99.90;;;;;;5053084;28;20037;-68
2022/04/22 01:18:51;;;;;;;16.23;8.70;;;10.80;99.90;;;;;;5051720;28;20491;-67
2022/04/22 01:21:17;;;;;;;15.98;7.95;;;10.90;99.90;;;;;;5052754;28;20040;-68
2022/04/22 01:23:43;;;;;;;15.93;9.13;;;10.80;99.90;;;;;;5053100;28;20459;-68
2022/04/22 01:26:09;;;;;;;13.00;7.85;;;10.60;99.90;;;;;;5052848;28;20495;-68
2022/04/22 01:28:35;;;;;;;20.40;8.40;;;10.80;99.90;;;;;;5051640;28;20033;-68
2022/04/22 01:31:01;;;;;;;14.60;8.32;;;10.60;99.90;;;;;;5051102;28;20037;-68
2022/04/22 01:33:27;;;;;;;14.30;7.72;;;10.50;99.90;;;;;;5051840;28;20132;-68
2022/04/22 01:35:53;;;;;;;16.73;7.82;;;10.50;99.90;;;;;;5052923;28;20126;-68
2022/04/22 01:38:18;;;;;;;13.80;7.90;;;10.50;99.90;;;;;;5052833;28;20086;-67
2022/04/22 01:40:44;;;;;;;12.75;7.95;;;;;;;;;;5050504;28;20048;-68
2022/04/22 01:43:10;;;;;;;15.15;7.72;;;10.30;99.90;;;;;;5052969;28;20056;-68
2022/04/22 01:45:35;;;;;;;15.35;9.32;;;10.30;99.90;;;;;;5052852;28;20117;-68
2022/04/22 01:48:01;;;;;;;16.92;7.78;;;10.20;99.90;;;;;;5051408;28;20032;-68
2022/04/22 01:50:27;;;;;;;13.77;6.82;;;;;;;;;;5052356;28;20033;-68
2022/04/22 01:52:53;;;;;;;14.50;8.20;;;;;;;;;;5051786;28;20051;-68
2022/04/22 01:55:19;;;;;;;13.25;8.02;;;;;;;;;;5034350;28;20530;-68
2022/04/22 01:57:46;;;;;;;12.80;7.45;;;;;;;;;;5052623;28;20128;-67
2022/04/22 02:00:12;;;;;;;11.63;8.52;;;9.90;99.90;;;;;;5051694;28;20041;-67
2022/04/22 02:02:38;;;;;;;18.02;8.32;;;9.80;99.90;;;;;;5051270;28;20395;-68
2022/04/22 02:05:05;;;;;;;16.80;9.48;;;9.90;99.90;;;;;;5051098;28;20036;-68
2022/04/22 02:07:31;;;;;;;15.70;8.73;;;9.90;99.90;;;;;;5052225;28;20511;-67
2022/04/22 02:09:57;;;;;;;15.38;8.57;;;9.80;99.90;;;;;;5049910;28;20044;-68
2022/04/22 02:12:23;;;;;;;13.93;8.10;;;;;;;;;;5050735;28;20044;-68
2022/04/22 02:14:49;;;;;;;12.02;7.97;;;;;;;;;;5050599;28;20041;-68
2022/04/22 02:17:15;;;;;;;12.23;8.43;;;;;;;;;;5051923;28;20067;-68
2022/04/22 02:19:41;;;;;;;13.00;7.22;;;;;;;;;;5051261;28;20060;-67
2022/04/22 02:22:07;;;;;;;15.23;8.43;;;9.80;99.90;;;;;;5050471;28;20495;-68
2022/04/22 02:24:33;;;;;;;14.20;8.55;;;;;;;;;;5033893;28;20029;-68
2022/04/22 02:29:43;;;;;;;10.85;7.30;;;9.60;99.90;;;;;;5051321;28;20060;-68
2022/04/22 02:32:09;;;;;;;16.40;7.82;;;9.60;99.90;;;;;;5052005;28;20033;-68
2022/04/22 02:34:35;;;;;;;15.45;7.60;;;9.50;99.90;;;;;;5051770;28;20406;-68
2022/04/22 02:37:01;;;;;;;15.00;7.97;;;;;;;;;;5050459;28;20119;-68
2022/04/22 02:39:27;;;;;;;11.10;7.45;;;;;;;;;;5033046;28;20052;-68
2022/04/22 02:47:22;;;;;;;11.45;7.45;;;;;;;;;;5050229;28;20551;-68
2022/04/22 02:49:48;;;;;;;13.38;7.85;;;;;;;;;;5049588;28;20076;-68
2022/04/22 02:52:15;;;;;;;13.70;7.32;;;9.50;99.90;;;;;;5033651;28;20413;-67
2022/04/22 02:54:41;;;;;;;12.73;7.50;;;9.40;99.90;;;;;;5050125;28;20571;-68
2022/04/22 02:57:08;;;;;;;14.27;7.35;;;9.30;99.90;;;;;;5051453;28;20415;-68
2022/04/22 02:59:34;;;;;;;14.65;7.68;;;;;;;;;;5049418;28;20056;-67
2022/04/22 03:02:00;;;;;;;12.95;6.65;;;;;;;;;;5049910;28;20045;-67
2022/04/22 03:04:26;;;;;;;14.23;7.93;;;9.30;99.90;;;;;;5051550;28;20029;-67
2022/04/22 03:06:55;;;;;;;15.05;7.20;;;;;;;;;;5049888;28;20037;-68
2022/04/22 03:09:21;;;;;;;15.93;8.35;;;;;;;;;;5049281;28;20041;-68
2022/04/22 03:11:47;;;;;;;10.73;6.72;;;;;;;;;;5052783;28;20047;-68
2022/04/22 03:14:14;;;;;;;19.02;7.07;;;;;;;;;;5050888;28;20041;-68
2022/04/22 03:16:40;;;;;;;12.32;7.72;;;9.20;99.90;;;;;;5051126;28;20098;-68
2022/04/22 03:19:07;;;;;;;19.55;7.93;;;;;;;;;;5050732;28;20155;-68
2022/04/22 03:21:34;;;;;;;15.88;7.13;;;9.00;99.90;;;;;;5051276;28;20037;-67
2022/04/22 03:24:00;;;;;;;13.63;7.13;;;;;;;;;;5051283;28;20041;-68
2022/04/22 03:26:26;;;;;;;12.18;7.22;;;;;;;;;;5050244;28;20395;-67
2022/04/22 03:28:56;;;;;;;9.60;6.15;;;;;;;;;;5050779;28;20037;-66
2022/04/22 03:31:22;;;;;;;12.15;8.43;;;;;;;;;;5049646;28;20041;-68
2022/04/22 03:33:48;;;;;;;13.13;7.88;;;;;;;;;;5050043;28;20116;-68
2022/04/22 03:36:14;;;;;;;12.35;7.55;;;;;;;;;;5049748;28;20522;-68
2022/04/22 03:38:41;;;;;;;14.05;6.63;;;;;;;;;;5053230;28;20614;-68
2022/04/22 03:41:07;;;;;;;10.50;6.82;;;;;;;;;;5052799;28;20495;-67
2022/04/22 03:43:32;;;;;;;14.73;7.72;;;;;;;;;;5053558;28;20056;-67
2022/04/22 03:45:59;;;;;;;9.65;6.78;;;8.80;99.90;;;;;;5055078;28;20471;-67
2022/04/22 03:48:25;;;;;;;13.38;6.97;;;;;;;;;;5053550;28;20048;-68
2022/04/22 03:50:51;;;;;;;14.07;6.93;;;;;;;;;;5036294;28;20041;-68
2022/04/22 03:53:17;;;;;;;9.27;6.78;;;;;;;;;;5053484;28;20525;-69
2022/04/22 03:55:44;;;;;;;13.75;7.13;;;8.60;99.90;;;;;;5036597;28;20049;-68
2022/04/22 03:58:11;;;;;;;12.48;6.97;;;8.60;99.90;;;;;;5053515;28;20041;-68
2022/04/22 04:00:41;;;;;;;13.57;6.97;;;8.60;99.90;;;;;;5052288;28;20033;-68
2022/04/22 04:03:11;;;;;;;15.27;7.53;;;8.60;99.90;;;;;;5036681;28;20083;-68
2022/04/22 04:05:38;;;;;;;14.23;7.15;;;8.60;99.90;;;;;;5036485;28;20510;-67
2022/04/22 04:08:04;;;;;;;10.88;6.63;;;;;;;;;;5054420;28;20040;-68
2022/04/22 04:16:00;;;;;;;14.57;6.88;;;;;;;;;;5052751;28;20072;-67
2022/04/22 04:18:30;;;;;;;15.93;7.32;;;8.30;99.90;;;;;;5053167;28;20053;-68
2022/04/22 04:23:42;;;;;;;14.07;7.50;;;;;;;;;;5052845;28;20079;-67
2022/04/22 04:26:08;;;;;;;12.85;6.88;;;8.30;99.90;;;;;;5053006;28;20041;-67
2022/04/22 04:28:35;;;;;;;14.65;7.10;;;8.30;99.90;;;;;;5054164;28;20131;-68
2022/04/22 04:31:01;;;;;;;15.25;7.35;;;;;;;;;;5052029;28;20041;-68
2022/04/22 04:33:28;;;;;;;13.55;7.65;;;;;;;;;;5052711;28;20045;-68
2022/04/22 04:35:54;;;;;;;16.92;7.18;;;8.40;99.90;;;;;;5052800;28;20514;-68
2022/04/22 04:38:20;;;;;;;13.80;6.97;;;;;;;;;;5054046;28;20040;-68
2022/04/22 04:40:46;;;;;;;17.73;7.47;;;;;;;;;;5052018;28;20521;-68
2022/04/22 04:43:12;;;;;;;10.25;6.65;;;;;;;;;;5052428;28;20041;-67
2022/04/22 04:45:38;;;;;;;12.55;6.47;;;;;;;;;;5035775;28;20179;-68
2022/04/22 04:48:04;;;;;;;15.73;8.07;;;;;;;;;;5052762;28;20068;-68
2022/04/22 04:50:33;;;;;;;17.45;7.63;;;;;;;;;;5051068;28;20653;-68
2022/04/22 04:52:59;;;;;;;10.52;6.88;;;;;;;;;;5053805;28;20075;-68
2022/04/22 04:55:26;;;;;;;14.80;7.53;;;8.40;99.90;;;;;;5052241;28;20106;-67
2022/04/22 04:57:52;;;;;;;10.25;7.60;;;;;;;;;;5053608;28;20380;-68
2022/04/22 05:00:18;;;;;;;9.68;6.18;;;8.30;99.90;;;;;;5051664;28;20052;-67
2022/04/22 05:02:45;;;;;;;12.50;7.13;;;;;;;;;;5053437;28;20033;-67
2022/04/22 05:05:12;;;;;;;11.13;7.00;;;;;;;;;;5052065;28;20498;-68
2022/04/22 05:07:56;;;;;;;11.65;7.28;;;8.60;99.90;;;;;;5051877;28;20041;-67
2022/04/22 05:10:23;;;;;;;13.25;7.47;;;8.50;99.90;;;;;;5051468;28;20068;-67
2022/04/22 05:12:49;;;;;;;14.75;8.48;;;8.50;99.90;;;;;;5052019;28;20542;-68
2022/04/22 05:17:42;;;;;;;13.43;6.45;;;;;;;;;;5113916;22;20407;-70
2022/04/22 05:20:10;;;;;;;12.48;5.90;;;8.50;99.90;;;;;;5074779;28;20032;-70
2022/04/22 05:22:36;;;;;;;11.40;6.28;;;8.30;99.90;;;;;;5092314;28;20032;-71
2022/04/22 05:25:04;;;;;;;12.10;6.60;;;8.30;99.90;;;;;;5097639;28;20142;-71
2022/04/22 05:27:31;;;;;;;9.63;6.22;;;;;;;;;;5077139;28;20043;-71
2022/04/22 05:32:47;;;;;;;13.68;7.60;;;;;;;;;;5088585;28;20445;-72
2022/04/22 05:35:13;;;;;;;10.82;7.10;;;;;;;;;;5088280;28;20558;-71
2022/04/22 05:37:43;;;;;;;10.52;6.00;;;;;;;;;;5085042;28;20413;-71
2022/04/22 05:40:10;;;;;;;8.40;5.13;;;;;;;;;;5058285;28;20432;-71
2022/04/22 05:42:38;;;;;;;8.88;5.00;;;;;;;;;;5070167;28;20116;-73
2022/04/22 05:45:06;;;;;;;7.35;5.05;;;8.90;99.90;;;;;;5087573;28;20653;-72
2022/04/22 05:47:32;;;;;;;14.80;6.07;;;;;;;;;;5087219;28;20043;-72
2022/04/22 05:49:58;;;;;;;9.50;5.32;;;;;;;;;;5087885;28;20032;-72
2022/04/22 05:52:24;;;;;;;11.95;7.30;;;;;;;;;;5084395;28;20456;-71
2022/04/22 05:54:50;;;;;;;7.38;5.18;;;;;;;;;;5070532;28;20040;-71
2022/04/22 05:57:17;;;;;;;8.88;5.25;;;;;;;;;;5086497;28;20044;-71
2022/04/22 05:59:43;;;;;;;6.80;5.10;;;;;;;;;;5086626;28;20159;-72
2022/04/22 06:02:08;;;;;;;6.50;4.75;;;9.20;99.90;;;;;;5072339;28;20506;-71
2022/04/22 06:04:34;;;;;;;8.05;5.03;;;;;;;;;;5068538;28;20043;-71
2022/04/22 06:07:00;;;;;;;9.07;5.22;;;9.30;99.90;;;;;;5070016;28;20097;-72
2022/04/22 06:12:12;;;;;;;11.68;6.05;;;;;;;;;;5073263;28;20056;-71
2022/04/22 06:14:38;;;;;;;12.48;6.00;;;;;;;;;;5080358;28;20041;-71
2022/04/22 06:17:04;;;;;;;10.40;5.45;;;;;;;;;;5085267;28;20045;-71
2022/04/22 06:19:30;;;;;;;7.65;4.82;;;;;;;;;;5090941;28;20051;-71
2022/04/22 06:21:56;;;;;;;11.07;4.95;;;;;;;;;;5099512;28;20069;-71
2022/04/22 06:24:22;;;;;;;7.00;4.35;;;;;;;;;;5081517;28;20044;-71
2022/04/22 06:26:48;;;;;;;10.95;4.57;;;;;;;;;;5098366;28;20052;-71
2022/04/22 06:29:14;;;;;;;9.88;3.97;;;;;;;;;;5087236;28;20051;-75
2022/04/22 06:31:40;;;;;;;6.45;3.95;;;;;;;;;;5088016;28;20051;-71
2022/04/22 06:34:06;;;;;;;6.90;3.88;;;;;;;;;;5053179;28;20056;-72
2022/04/22 06:36:32;;;;;;;7.90;4.57;;;9.80;99.90;;;;;;5090452;28;20052;-72
2022/04/22 06:38:58;;;;;;;9.63;4.82;;;;;;;;;;5088189;28;20040;-72
2022/04/22 06:47:12;;;;;;;14.23;4.63;;;;;;;;;;5066289;28;20435;-72
2022/04/22 06:49:38;;;;;;;6.15;3.53;;;10.20;99.90;;;;;;5091197;28;20093;-72
2022/04/22 06:52:05;;;;;;;8.90;4.00;;;10.30;99.90;;;;;;5091462;28;20036;-73
2022/04/22 06:54:31;;;;;;;9.70;3.80;;;10.20;99.90;;;;;;5092254;28;20040;-72
2022/04/22 06:56:57;;;;;;;5.97;3.53;;;;;;;;;;5074067;28;20050;-72
2022/04/22 06:59:24;;;;;;;9.10;3.83;;;10.30;99.90;;;;;;5073451;28;20062;-72
2022/04/22 07:01:50;;;;;;;6.13;3.45;;;;;;;;;;5090563;28;20059;-72
2022/04/22 07:04:16;;;;;;;5.90;3.40;;;;;;;;;;5092020;28;20072;-73
2022/04/22 07:06:43;;;;;;;7.72;3.72;;;;;;;;;;5090156;28;20070;-72
2022/04/22 07:09:12;;;;;;;7.20;3.15;;;10.70;99.90;;;;;;5089839;28;20043;-71
2022/04/22 07:11:41;;;;;;;5.13;3.10;;;10.80;99.90;;;;;;5073581;28;20097;-72
2022/04/22 07:14:07;;;;;;;4.63;3.05;;;;;;;;;;5091895;28;20036;-72
2022/04/22 07:16:33;;;;;;;7.50;2.60;;;;;;;;;;5072676;28;20493;-72
2022/04/22 07:18:59;;;;;;;3.90;2.72;;;;;;;;;;5090120;28;20051;-72
2022/04/22 07:21:26;;;;;;;4.20;3.13;;;10.80;99.90;;;;;;5091504;28;20044;-72
2022/04/22 07:23:53;;;;;;;6.18;3.42;;;11.10;99.90;;;;;;5090574;28;20036;-72
2022/04/22 07:26:20;;;;;;;7.25;3.63;;;11.00;99.90;;;;;;5090440;28;20040;-72
2022/04/22 07:28:47;;;;;;;6.28;2.70;;;11.20;99.90;;;;;;5090654;28;20074;-72
2022/04/22 07:31:16;;;;;;;3.80;2.78;;;11.10;99.90;;;;;;5089698;28;20036;-72
2022/04/22 07:33:42;;;;;;;5.60;3.08;;;11.20;99.90;;;;;;5090470;28;20173;-72
2022/04/22 07:36:08;;;;;;;4.97;3.25;;;11.20;99.90;;;;;;5090309;28;20131;-72
2022/04/22 07:38:34;;;;;;;6.15;3.03;;;;;;;;;;5090606;28;20501;-73
2022/04/22 07:41:00;;;;;;;9.25;2.88;;;;;;;;;;5073129;28;20050;-73
2022/04/22 07:48:56;;;;;;;4.90;3.03;;;;;;;;;;5089822;28;20051;-72
2022/04/22 07:51:25;;;;;;;4.28;2.90;;;11.80;99.90;;;;;;5090157;28;20048;-73
2022/04/22 07:53:51;;;;;;;5.88;2.75;;;;;;;;;;5091723;28;20055;-73
2022/04/22 07:56:17;;;;;;;4.80;3.17;;;;;;;;;;5090145;28;20036;-73
2022/04/22 07:58:43;;;;;;;10.07;3.28;;;11.90;99.90;;;;;;5090191;28;20055;-73
2022/04/22 08:01:09;;;;;;;5.95;2.85;;;12.00;99.90;;;;;;5089350;28;20433;-73
2022/04/22 08:03:36;;;;;;;8.82;3.40;;;12.10;99.90;;;;;;5090462;28;20040;-73
2022/04/22 08:06:02;;;;;;;3.95;2.83;;;12.20;99.90;;;;;;5091404;28;20107;-72
2022/04/22 08:08:30;;;;;;;5.40;3.00;;;12.20;99.90;;;;;;5091239;28;20111;-73
2022/04/22 08:10:56;;;;;;;6.10;3.13;;;;;;;;;;5090580;28;20052;-73
2022/04/22 08:13:22;;;;;;;5.40;2.78;;;;;;;;;;5091176;28;20521;-72
2022/04/22 08:15:48;;;;;;;4.63;2.97;;;;;;;;;;5088138;28;20101;-72
2022/04/22 08:18:14;;;;;;;4.88;2.90;;;;;;;;;;5089997;28;20036;-72
2022/04/22 08:20:40;;;;;;;5.22;2.70;;;;;;;;;;5090349;28;20043;-72
2022/04/22 08:23:06;;;;;;;6.95;3.55;;;12.50;99.90;;;;;;5091090;28;20040;-73
2022/04/22 08:25:31;;;;;;;4.03;2.88;;;12.60;99.90;;;;;;5086200;28;20032;-74
2022/04/22 08:27:57;;;;;;;4.47;2.72;;;;;;;;;;5091352;28;20127;-74
2022/04/22 08:30:23;;;;;;;5.50;2.95;;;12.70;99.90;;;;;;5092373;28;20039;-73
2022/04/22 08:32:49;;;;;;;7.95;4.15;;;;;;;;;;5094493;28;20032;-73
2022/04/22 08:35:15;;;;;;;3.15;2.70;;;;;;;;;;5094238;28;20524;-73
2022/04/22 08:37:44;;;;;;;3.58;2.58;;;13.00;99.90;;;;;;5092962;28;20520;-74
2022/04/22 08:40:10;;;;;;;6.90;2.60;;;13.10;99.90;;;;;;5090186;28;20469;-74
2022/04/22 08:42:38;;;;;;;6.35;3.30;;;13.10;99.90;;;;;;5090087;28;20587;-74
2022/04/22 08:45:06;;;;;;;5.80;2.60;;;13.00;99.90;;;;;;5093006;28;20109;-74
2022/04/22 08:50:16;;;;;;;6.80;3.30;;;;;;;;;;5092400;28;20097;-73
2022/04/22 08:52:45;;;;;;;6.35;3.28;;;13.10;99.90;;;;;;5094340;28;20039;-74
2022/04/22 08:55:12;;;;;;;10.10;4.45;;;13.20;99.90;;;;;;5092848;28;20108;-74
2022/04/22 08:57:41;;;;;;;6.63;3.03;;;13.40;99.90;;;;;;5092820;28;20513;-74
2022/04/22 09:00:07;;;;;;;4.88;2.45;;;14.00;99.90;;;;;;5092545;28;20063;-73
2022/04/22 09:02:33;;;;;;;4.90;2.70;;;13.60;99.90;;;;;;5092534;28;20053;-73
2022/04/22 09:04:59;;;;;;;6.32;2.72;;;;;;;;;;5090879;28;20043;-73
2022/04/22 09:07:26;;;;;;;5.30;2.85;;;13.90;99.90;;;;;;5085304;28;20032;-74
2022/04/22 09:09:52;;;;;;;9.80;2.90;;;;;;;;;;5093357;28;20094;-74
2022/04/22 09:12:21;;;;;;;7.45;3.47;;;13.80;99.90;;;;;;5069161;28;20108;-74
2022/04/22 09:14:49;;;;;;;5.43;2.72;;;14.00;99.90;;;;;;5092331;28;20562;-74
2022/04/22 09:17:17;;;;;;;5.97;2.78;;;14.00;99.90;;;;;;5091852;28;20039;-74
2022/04/22 09:19:46;;;;;;;6.70;2.85;;;14.00;99.90;;;;;;5091264;28;20039;-73
2022/04/22 09:22:27;;;;;;;5.07;2.47;;;14.10;99.90;;;;;;5068349;28;20115;-73
2022/04/22 09:24:54;;;;;;;5.38;2.95;;;14.10;99.90;;;;;;5092113;28;20042;-74
2022/04/22 09:27:30;;;;;;;5.38;3.25;;;13.90;99.90;;;;;;5093211;28;20054;-73
2022/04/22 09:29:56;;;;;;;8.57;3.30;;;13.90;99.90;;;;;;5091599;28;20039;-73
2022/04/22 09:32:26;;;;;;;3.75;2.60;;;14.20;99.90;;;;;;5074694;28;20042;-73
2022/04/22 09:35:06;;;;;;;5.05;2.70;;;14.20;99.90;;;;;;5074308;28;20508;-73
2022/04/22 09:43:00;;;;;;;6.13;2.45;;;14.40;99.90;;;;;;5071653;28;20139;-73
2022/04/22 09:45:38;;;;;;;4.20;2.78;;;14.60;99.90;;;;;;5054777;28;20127;-73
2022/04/22 09:48:13;;;;;;;2.92;2.25;;;14.70;99.90;;;;;;5071804;28;20040;-73
2022/04/22 09:50:41;;;;;;;4.15;2.55;;;14.50;99.90;;;;;;5054246;28;20036;-73
2022/04/22 09:53:07;;;;;;;9.23;3.13;;;14.90;99.60;;;;;;5071413;28;20037;-73
2022/04/22 09:55:53;;;;;;;3.72;3.00;;;14.90;99.90;;;;;;5071609;28;20055;-73
2022/04/22 09:58:23;;;;;;;4.60;2.60;;;14.90;99.20;;;;;;5072895;28;20040;-74
2022/04/22 10:00:57;;;;;;;5.47;2.33;;;15.00;98.80;;;;;;5070684;28;20091;-73
2022/04/22 10:03:25;;;;;;;5.78;2.90;;;15.10;99.90;;;;;;5074375;28;20404;-73
2022/04/22 10:05:53;;;;;;;3.88;2.50;;;15.30;98.80;;;;;;5090563;28;20123;-73
2022/04/22 10:08:20;;;;;;;3.95;2.47;;;15.10;99.70;;;;;;5072755;28;20033;-73
2022/04/22 10:10:47;;;;;;;6.85;2.40;;;15.20;99.80;;;;;;5054119;28;20109;-73
2022/04/22 10:13:16;;;;;;;8.30;3.13;;;15.40;99.50;;;;;;5054779;28;20406;-73
2022/04/22 10:15:45;;;;;;;5.70;2.45;;;15.30;99.20;;;;;;5054315;28;20076;-73
2022/04/22 10:18:13;;;;;;;8.30;2.42;;;15.40;99.00;;;;;;5069155;28;20525;-73
2022/04/22 10:20:40;;;;;;;3.28;2.17;;;15.40;99.40;;;;;;5086620;28;20036;-74
2022/04/22 10:23:06;;;;;;;7.32;3.10;;;15.50;99.30;;;;;;5092533;28;20100;-73
2022/04/22 10:25:33;;;;;;;3.05;2.42;;;;;;;;;;5074005;28;20505;-74
2022/04/22 10:28:03;;;;;;;4.20;2.28;;;15.60;98.90;;;;;;5091146;28;20048;-75
2022/04/22 10:30:29;;;;;;;3.95;2.13;;;15.60;98.90;;;;;;5090340;28;20082;-75
2022/04/22 10:32:56;;;;;;;5.82;2.65;;;15.70;98.80;;;;;;5091042;28;20036;-75
2022/04/22 10:35:23;;;;;;;5.53;2.50;;;15.70;98.30;;;;;;5082154;28;20070;-74
2022/04/22 10:37:49;;;;;;;6.07;3.00;;;;;;;;;;5076113;28;20476;-73
2022/04/22 10:40:19;;;;;;;5.20;2.80;;;15.70;99.00;;;;;;5086843;28;20745;-74
2022/04/22 10:42:44;;;;;;;6.05;2.72;;;15.90;99.00;;;;;;5088372;28;20128;-74
2022/04/22 10:47:57;;;;;;;5.15;3.15;;;16.20;99.20;;;;;;5086562;28;20040;-74
2022/04/22 10:50:27;;;;;;;4.35;2.92;;;16.20;99.10;;;;;;5085900;28;20051;-74
2022/04/22 10:53:01;;;;;;;6.72;2.78;;;15.90;97.70;;;;;;5083170;28;20039;-74
2022/04/22 10:55:28;;;;;;;7.30;2.70;;;15.90;98.80;;;;;;5088155;28;20065;-74
2022/04/22 10:58:13;;;;;;;5.60;3.25;;;16.20;97.80;;;;;;5087953;28;20031;-74
2022/04/22 11:00:43;;;;;;;6.93;3.30;;;16.40;99.30;;;;;;5085404;28;20513;-73
2022/04/22 11:03:21;;;;;;;7.60;3.75;;;16.20;98.60;;;;;;5083170;28;20108;-72
2022/04/22 11:05:59;;;;;;;7.88;3.30;;;16.10;98.40;;;;;;5085980;28;20111;-72
2022/04/22 11:08:30;;;;;;;7.13;2.85;;;16.30;99.00;;;;;;5086003;28;20028;-73
2022/04/22 11:10:56;;;;;;;7.82;3.50;;;16.10;98.30;;;;;;5085031;28;20036;-74
2022/04/22 11:13:40;;;;;;;5.30;3.25;;;16.00;98.90;;;;;;5077675;28;20037;-73
2022/04/22 11:16:11;;;;;;;4.60;2.80;;;16.30;98.80;;;;;;5104461;22;20267;-70
2022/04/22 11:18:39;;;;;;;7.45;2.90;;;16.30;97.70;;;;;;5085608;28;20502;-71
2022/04/22 11:21:19;;;;;;;4.78;3.28;;;16.60;98.10;;;;;;5090655;28;20040;-71
2022/04/22 11:23:45;;;;;;;5.47;3.50;;;16.60;97.30;;;;;;5091302;28;20040;-70
2022/04/22 11:26:13;;;;;;;7.47;3.25;;;16.60;97.70;;;;;;5073050;28;20036;-71
2022/04/22 11:28:40;;;;;;;9.80;3.53;;;16.60;97.30;;;;;;5071060;28;20497;-71
2022/04/22 11:31:11;;;;;;;5.60;3.25;;;16.70;97.90;;;;;;5088861;28;20040;-72
2022/04/22 11:34:12;;;;;;;5.88;3.58;;;16.80;99.20;;;;;;5089826;28;20562;-72
2022/04/22 11:36:46;;;;;;;9.27;4.35;;;16.80;97.50;;;;;;5089604;28;20047;-72
2022/04/22 11:39:20;;;;;;;4.72;3.08;;;17.20;97.80;;;;;;5072031;28;20043;-71
2022/04/22 11:41:53;;;;;;;4.80;2.90;;;16.70;98.10;;;;;;5090843;28;20048;-72
2022/04/22 11:44:20;;;;;;;12.98;3.42;;;17.10;98.00;;;;;;5089959;28;20493;-72
2022/04/22 11:46:46;;;;;;;6.68;3.65;;;17.20;97.60;;;;;;5087084;28;20036;-72
2022/04/22 11:49:13;;;;;;;5.75;3.85;;;17.20;99.90;;;;;;5080571;28;20043;-71
2022/04/22 11:51:39;;;;;;;7.38;3.85;;;17.20;99.90;;;;;;5090852;28;20118;-72
2022/04/22 11:54:05;;;;;;;5.85;4.22;;;17.10;99.90;;;;;;5090785;28;20234;-72
2022/04/22 11:56:30;;;;;;;8.57;4.05;;;16.80;99.90;;;;;;5091042;28;20039;-72
2022/04/22 11:58:56;;;;;;;7.05;3.85;;;17.00;99.90;;;;;;5091102;28;20093;-71
2022/04/22 12:07:02;;;;;;;6.80;3.72;;;17.20;99.90;;;;;;5094984;28;20346;-71
2022/04/22 12:09:28;;;;;;;6.22;3.58;;;17.30;99.90;;;;;;5075767;28;20040;-72
2022/04/22 12:11:57;;;;;;;4.25;3.38;;;17.40;99.90;;;;;;5094779;28;20248;-72
2022/04/22 12:14:28;;;;;;;5.32;3.42;;;17.60;97.50;;;;;;5093482;28;20059;-72
2022/04/22 12:16:58;;;;;;;11.90;5.32;;;18.60;97.10;;;;;;5092961;28;20055;-72
2022/04/22 12:19:25;;;;;;;7.13;3.70;;;17.40;96.70;;;;;;5088274;28;20089;-71
2022/04/22 12:21:50;;;;;;;7.50;4.00;;;17.60;96.90;;;;;;5083065;28;20505;-72
2022/04/22 12:24:16;;;;;;;9.65;3.92;;;17.60;96.90;;;;;;5088499;28;20044;-71
2022/04/22 12:26:44;;;;;;;5.40;3.63;;;17.50;97.00;;;;;;5076068;28;20089;-72
2022/04/22 12:29:15;;;;;;;8.30;4.00;;;17.60;96.90;;;;;;5075180;28;20510;-71
2022/04/22 12:31:46;;;;;;;7.68;4.07;;;17.80;96.80;;;;;;5076059;28;20071;-71
2022/04/22 12:34:26;;;;;;;6.50;3.45;;;17.70;96.80;;;;;;5077092;28;20060;-72
2022/04/22 12:36:52;;;;;;;9.05;3.53;;;17.80;96.20;;;;;;5078030;28;20119;-72
2022/04/22 12:39:41;;;;;;;5.70;3.30;;;17.90;96.40;;;;;;5075955;28;20111;-72
2022/04/22 12:42:19;;;;;;;6.15;3.78;;;18.20;96.40;;;;;;5092544;28;20374;-69
2022/04/22 12:53:31;;;;;;;6.82;4.05;;;17.90;96.00;;;;;;5091784;28;20152;-72
2022/04/22 12:56:02;;;;;;;9.02;3.30;;;18.10;96.50;;;;;;5089444;28;20047;-71
2022/04/22 12:58:28;;;;;;;5.90;3.25;;;18.30;96.00;;;;;;5074718;28;20043;-70
2022/04/22 13:00:54;;;;;;;5.90;4.38;;;18.30;96.00;;;;;;5071169;28;20032;-71
2022/04/22 13:03:21;;;;;;;5.25;3.25;;;19.70;95.60;;;;;;5073239;28;20057;-71
2022/04/22 13:05:48;;;;;;;8.10;5.13;;;18.60;96.50;;;;;;5073394;28;20162;-71
2022/04/22 13:08:15;;;;;;;8.02;3.63;;;;;;;;;;5077131;28;20550;-71
2022/04/22 13:10:41;;;;;;;8.05;3.88;;;18.30;99.90;;;;;;5071042;28;20040;-71
2022/04/22 13:13:07;;;;;;;6.78;3.90;;;18.30;99.90;;;;;;5072969;28;20486;-71
2022/04/22 13:15:33;;;;;;;8.10;4.60;;;18.30;99.90;;;;;;5071699;28;20102;-71
2022/04/22 13:17:59;;;;;;;8.20;3.97;;;18.30;99.90;;;;;;5071555;28;20041;-71
2022/04/22 13:20:24;;;;;;;6.13;4.22;;;18.20;99.90;;;;;;5087078;28;20370;-71
2022/04/22 13:22:50;;;;;;;6.00;3.90;;;18.30;99.90;;;;;;5075054;28;20551;-71
2022/04/22 13:25:17;;;;;;;6.03;4.25;;;18.40;99.90;;;;;;5091832;28;20520;-71
2022/04/22 13:27:44;;;;;;;7.05;3.85;;;18.60;99.90;;;;;;5091822;28;20065;-70
2022/04/22 13:30:11;;;;;;;5.88;4.20;;;18.60;99.90;;;;;;5091340;28;20404;-71
2022/04/22 13:32:38;;;;;;;11.73;4.47;;;18.60;99.90;;;;;;5093407;28;20063;-71
2022/04/22 13:35:07;;;;;;;9.20;4.47;;;;;;;;;;5074709;28;20534;-71
2022/04/22 13:37:33;;;;;;;8.40;4.15;;;18.60;95.40;;;;;;5088943;28;20044;-72
2022/04/22 13:39:59;;;;;;;7.50;4.82;;;18.60;95.40;;;;;;5081825;28;20417;-71
2022/04/22 13:42:25;;;;;;;6.88;4.78;;;18.40;95.30;;;;;;5091364;28;20036;-69
2022/04/22 13:53:04;;;;;;;6.93;4.82;;;19.00;95.20;;;;;;5092812;28;20181;-71
2022/04/22 13:55:30;;;;;;;7.70;4.65;;;18.70;95.70;;;;;;5091257;28;20051;-71
2022/04/22 13:57:56;;;;;;;9.43;4.15;;;18.50;95.90;;;;;;5091403;28;20497;-71
2022/04/22 14:00:22;;;;;;;7.72;4.53;;;18.60;96.00;;;;;;5090371;28;20036;-71
2022/04/22 14:02:48;;;;;;;6.50;5.20;;;19.60;96.50;;;;;;5090929;28;20091;-71
2022/04/22 14:05:21;;;;;;;8.20;4.75;;;18.50;96.20;;;;;;5073870;28;20437;-71
2022/04/22 14:07:49;;;;;;;7.65;4.95;;;18.50;96.00;;;;;;5090725;28;20097;-71
2022/04/22 14:10:19;;;;;;;7.88;4.55;;;18.70;96.00;;;;;;5063806;28;20071;-71
2022/04/22 14:12:45;;;;;;;10.65;4.65;;;18.90;95.80;;;;;;5088105;28;20040;-72
2022/04/22 14:15:10;;;;;;;6.03;5.00;;;18.70;96.00;;;;;;5090625;28;20093;-71
2022/04/22 14:17:36;;;;;;;7.20;4.82;;;18.70;95.80;;;;;;5090706;28;20109;-72
2022/04/22 14:20:05;;;;;;;9.98;5.53;;;18.80;95.80;;;;;;5090137;28;20043;-72
2022/04/22 14:22:31;;;;;;;7.13;4.88;;;19.00;95.80;;;;;;5089908;28;20101;-71
2022/04/22 14:24:57;;;;;;;8.00;4.82;;;18.80;95.90;;;;;;5090361;28;20490;-72
2022/04/22 14:27:23;;;;;;;14.68;5.95;;;18.40;96.30;;;;;;5084589;28;20044;-71
2022/04/22 14:29:50;;;;;;;14.48;4.72;;;18.80;96.60;;;;;;5090343;28;20040;-71
2022/04/22 14:32:15;;;;;;;8.60;5.25;;;18.80;96.60;;;;;;5091995;28;20093;-72